createdAt,value
2018-11-07T00:00:50.106Z,10.00
2018-11-07T00:05:34.686Z,9.90
2018-11-07T00:10:19.335Z,10.00
2018-11-07T00:15:03.007Z,10.10
2018-11-07T00:19:46.938Z,10.20
2018-11-07T00:24:30.739Z,10.20
2018-11-07T00:29:15.192Z,10.20
2018-11-07T00:33:58.975Z,10.10
2018-11-07T00:38:43.393Z,9.90
2018-11-07T00:43:27.699Z,9.60
2018-11-07T00:48:12.548Z,9.30
2018-11-07T00:52:56.257Z,9.10
2018-11-07T00:57:40.967Z,8.70
2018-11-07T01:02:25.078Z,8.30
2018-11-07T01:07:09.089Z,8.00
2018-11-07T01:11:53.218Z,7.90
2018-11-07T01:16:38.871Z,7.80
2018-11-07T01:21:22.957Z,7.60
2018-11-07T01:26:06.649Z,7.60
2018-11-07T01:30:51.425Z,7.50
2018-11-07T01:35:37.070Z,7.40
2018-11-07T01:40:20.787Z,7.20
2018-11-07T01:45:04.555Z,7.10
2018-11-07T01:49:48.289Z,6.90
2018-11-07T01:54:32.065Z,6.90
2018-11-07T01:59:15.696Z,6.70
2018-11-07T02:03:59.400Z,6.70
2018-11-07T02:08:43.087Z,7.00
2018-11-07T02:13:26.811Z,7.40
2018-11-07T02:18:10.613Z,7.70
2018-11-07T02:22:59.974Z,8.00
2018-11-07T02:27:43.736Z,8.00
2018-11-07T02:32:27.533Z,8.20
2018-11-07T02:37:12.758Z,8.30
2018-11-07T02:41:56.497Z,8.40
2018-11-07T02:46:40.383Z,8.20
2018-11-07T02:51:24.101Z,8.10
2018-11-07T02:56:07.856Z,8.10
2018-11-07T03:00:51.523Z,7.90
2018-11-07T03:05:35.442Z,7.60
2018-11-07T03:10:19.793Z,7.40
2018-11-07T03:15:03.800Z,7.20
2018-11-07T03:19:47.498Z,7.20
2018-11-07T03:24:31.257Z,7.10
2018-11-07T03:29:15.075Z,7.10
2018-11-07T03:33:58.819Z,7.20
2018-11-07T03:38:42.524Z,7.40
2018-11-07T03:43:26.360Z,7.30
2018-11-07T03:48:10.342Z,7.50
2018-11-07T03:52:54.185Z,7.70
2018-11-07T03:57:37.862Z,7.60
2018-11-07T04:02:21.636Z,7.60
2018-11-07T04:07:05.675Z,7.50
2018-11-07T04:11:49.688Z,7.50
2018-11-07T04:16:33.411Z,7.50
2018-11-07T04:21:17.838Z,7.70
2018-11-07T04:26:01.580Z,7.70
2018-11-07T04:30:45.329Z,7.60
2018-11-07T04:35:29.154Z,7.30
2018-11-07T04:40:13.426Z,7.30
2018-11-07T04:44:57.196Z,7.30
2018-11-07T04:49:41.110Z,7.30
2018-11-07T04:54:25.138Z,7.30
2018-11-07T04:59:08.891Z,7.30
2018-11-07T05:03:53.752Z,7.30
2018-11-07T05:08:37.526Z,7.30
2018-11-07T05:13:21.274Z,7.30
2018-11-07T05:18:04.973Z,7.30
2018-11-07T05:22:48.852Z,7.40
2018-11-07T05:27:32.786Z,7.40
2018-11-07T05:32:17.198Z,7.30
2018-11-07T05:37:00.910Z,7.30
2018-11-07T05:41:44.788Z,7.20
2018-11-07T05:46:28.651Z,7.10
2018-11-07T05:51:12.843Z,7.10
2018-11-07T05:55:56.612Z,7.00
2018-11-07T06:00:40.466Z,7.00
2018-11-07T06:05:24.278Z,6.70
2018-11-07T06:10:10.263Z,6.50
2018-11-07T06:14:54.080Z,6.50
2018-11-07T06:19:37.869Z,6.60
2018-11-07T06:24:21.703Z,6.90
2018-11-07T06:29:05.436Z,7.20
2018-11-07T06:33:49.302Z,7.30
2018-11-07T06:38:33.174Z,7.30
2018-11-07T06:43:17.115Z,7.20
2018-11-07T06:48:00.842Z,7.20
2018-11-07T06:52:44.743Z,7.30
2018-11-07T06:57:28.588Z,7.40
2018-11-07T07:02:12.550Z,7.60
2018-11-07T07:06:56.514Z,7.50
2018-11-07T07:11:40.738Z,7.70
2018-11-07T07:16:24.551Z,8.00
2018-11-07T07:21:08.515Z,8.20
2018-11-07T07:25:52.494Z,8.40
2018-11-07T07:30:36.490Z,8.50
2018-11-07T07:35:20.169Z,8.60
2018-11-07T07:40:04.166Z,8.80
2018-11-07T07:44:47.828Z,9.10
2018-11-07T07:49:31.773Z,9.20
2018-11-07T07:54:15.561Z,9.50
2018-11-07T07:58:59.280Z,9.80
2018-11-07T08:03:43.168Z,10.10
2018-11-07T08:08:26.960Z,10.30
2018-11-07T08:13:10.841Z,10.60
2018-11-07T08:17:54.611Z,11.00
2018-11-07T08:22:38.376Z,11.40
2018-11-07T08:27:22.198Z,11.70
2018-11-07T08:32:06.321Z,11.90
2018-11-07T08:36:50.095Z,12.20
2018-11-07T08:41:35.310Z,12.50
2018-11-07T08:46:19.600Z,12.80
2018-11-07T08:51:03.398Z,13.00
2018-11-07T08:55:47.173Z,13.30
2018-11-07T09:00:30.957Z,13.50
2018-11-07T09:05:16.032Z,13.60
2018-11-07T09:09:59.976Z,13.90
2018-11-07T09:14:43.699Z,14.10
2018-11-07T09:19:27.492Z,14.30
2018-11-07T09:24:11.487Z,14.40
2018-11-07T09:28:55.298Z,14.70
2018-11-07T09:33:39.024Z,14.80
2018-11-07T09:38:22.841Z,14.90
2018-11-07T09:43:06.555Z,15.20
2018-11-07T09:47:50.842Z,15.00
2018-11-07T09:52:34.669Z,15.00
2018-11-07T09:57:18.476Z,15.20
2018-11-07T10:02:02.530Z,15.20
2018-11-07T10:06:46.295Z,15.40
2018-11-07T10:11:30.045Z,15.30
2018-11-07T10:16:13.913Z,15.40
2018-11-07T10:20:58.770Z,15.40
2018-11-07T10:25:42.663Z,15.30
2018-11-07T10:30:26.441Z,15.30
2018-11-07T10:35:10.615Z,15.30
2018-11-07T10:39:54.383Z,15.20
2018-11-07T10:44:38.071Z,15.40
2018-11-07T10:49:21.911Z,15.30
2018-11-07T10:54:05.632Z,15.20
2018-11-07T10:58:49.474Z,15.30
2018-11-07T11:03:33.335Z,15.40
2018-11-07T11:08:17.113Z,15.40
2018-11-07T11:13:00.859Z,15.40
2018-11-07T11:17:44.756Z,15.40
2018-11-07T11:22:28.412Z,15.40
2018-11-07T11:27:12.331Z,15.40
2018-11-07T11:31:56.933Z,15.40
2018-11-07T11:36:40.814Z,15.30
2018-11-07T11:41:24.561Z,15.50
2018-11-07T11:46:08.390Z,15.50
2018-11-07T11:50:52.081Z,15.40
2018-11-07T11:55:36.030Z,15.50
2018-11-07T12:00:20.745Z,15.30
2018-11-07T12:05:05.147Z,15.50
2018-11-07T12:09:49.123Z,15.50
2018-11-07T12:14:33.042Z,15.70
2018-11-07T12:19:17.056Z,15.60
2018-11-07T12:24:01.253Z,15.70
2018-11-07T12:28:45.023Z,15.70
2018-11-07T12:33:29.195Z,15.60
2018-11-07T12:38:12.879Z,15.40
2018-11-07T12:42:56.902Z,15.20
2018-11-07T12:47:40.887Z,14.80
2018-11-07T12:52:24.805Z,14.60
2018-11-07T12:57:08.844Z,14.40
2018-11-07T13:01:52.575Z,14.60
2018-11-07T13:06:36.439Z,14.70
2018-11-07T13:11:20.274Z,14.60
2018-11-07T13:16:04.106Z,14.40
2018-11-07T13:20:48.025Z,14.40
2018-11-07T13:25:31.871Z,14.30
2018-11-07T13:30:16.787Z,14.30
2018-11-07T13:35:00.638Z,14.30
2018-11-07T13:39:44.325Z,14.20
2018-11-07T13:44:28.243Z,14.20
2018-11-07T13:49:12.056Z,14.30
2018-11-07T13:53:56.106Z,14.30
2018-11-07T13:58:39.865Z,14.30
2018-11-07T14:03:23.724Z,14.50
2018-11-07T14:08:07.416Z,14.40
2018-11-07T14:12:51.844Z,14.20
2018-11-07T14:17:35.700Z,14.30
2018-11-07T14:22:19.517Z,14.10
2018-11-07T14:27:03.416Z,14.00
2018-11-07T14:31:47.273Z,13.80
2018-11-07T14:36:31.172Z,13.50
2018-11-07T14:41:15.001Z,13.20
2018-11-07T14:45:58.950Z,12.90
2018-11-07T14:50:43.072Z,12.80
2018-11-07T14:55:26.982Z,12.50
2018-11-07T15:00:14.991Z,12.20
2018-11-07T15:04:58.700Z,12.00
2018-11-07T15:09:42.457Z,11.80
2018-11-07T15:14:26.264Z,11.50
2018-11-07T15:19:10.215Z,11.20
2018-11-07T15:23:54.827Z,11.10
2018-11-07T15:28:38.629Z,10.90
2018-11-07T15:33:23.047Z,10.90
2018-11-07T15:38:06.747Z,10.70
2018-11-07T15:42:50.614Z,10.70
2018-11-07T15:48:23.325Z,10.40
2018-11-07T15:53:15.912Z,10.30
2018-11-07T15:58:03.857Z,10.20
2018-11-07T16:02:47.956Z,10.00
2018-11-07T16:07:31.730Z,10.00
2018-11-07T16:12:15.547Z,10.10
2018-11-07T16:16:59.329Z,10.10
2018-11-07T16:21:43.146Z,10.20
2018-11-07T16:26:27.144Z,10.00
2018-11-07T16:31:11.087Z,9.80
2018-11-07T16:40:35.830Z,9.80
2018-11-07T16:45:20.021Z,9.90
2018-11-07T16:50:05.260Z,9.80
2018-11-07T16:54:49.158Z,9.70
2018-11-07T16:59:33.034Z,9.70
2018-11-07T17:04:16.997Z,9.60
2018-11-07T17:09:00.887Z,9.70
2018-11-07T17:13:44.926Z,9.80
2018-11-07T17:18:28.839Z,9.70
2018-11-07T17:23:18.527Z,9.60
2018-11-07T17:27:56.767Z,9.50
2018-11-07T17:32:45.094Z,9.50
2018-11-07T17:42:41.886Z,9.40
2018-11-07T17:47:26.506Z,9.40
2018-11-07T17:52:10.425Z,9.20
2018-11-07T17:56:54.476Z,9.10
2018-11-07T18:01:38.354Z,9.00
2018-11-07T18:06:22.375Z,8.90
2018-11-07T18:11:06.511Z,8.90
2018-11-07T18:15:50.651Z,9.00
2018-11-07T18:20:34.701Z,8.90
2018-11-07T18:25:18.971Z,8.70
2018-11-07T18:30:02.897Z,8.60
2018-11-07T18:34:48.003Z,8.70
2018-11-07T18:39:32.080Z,8.60
2018-11-07T18:44:16.202Z,8.40
2018-11-07T18:49:00.309Z,8.50
2018-11-07T18:53:44.644Z,8.40
2018-11-07T18:58:28.652Z,8.30
2018-11-07T19:03:12.628Z,8.20
2018-11-07T19:07:56.434Z,8.20
2018-11-07T19:12:40.896Z,8.10
2018-11-07T19:17:24.644Z,8.10
2018-11-07T19:22:08.391Z,8.10
2018-11-07T19:26:53.092Z,8.00
2018-11-07T19:31:36.930Z,8.00
2018-11-07T19:36:20.799Z,8.00
2018-11-07T19:41:04.640Z,8.00
2018-11-07T19:45:48.595Z,8.00
2018-11-07T19:50:32.341Z,8.10
2018-11-07T19:55:18.022Z,8.20
2018-11-07T20:00:02.003Z,8.40
2018-11-07T20:04:45.962Z,8.40
2018-11-07T20:09:29.906Z,8.20
2018-11-07T20:14:13.979Z,8.10
2018-11-07T20:18:57.901Z,8.00
2018-11-07T20:23:41.712Z,8.00
2018-11-07T20:28:26.546Z,8.00
2018-11-07T20:33:10.408Z,7.90
2018-11-07T20:37:54.316Z,7.90
2018-11-07T20:42:38.237Z,7.90
2018-11-07T20:47:22.000Z,7.90
2018-11-07T20:52:06.167Z,7.80
2018-11-07T20:56:50.142Z,7.90
2018-11-07T21:01:33.943Z,7.90
2018-11-07T21:06:17.857Z,8.10
2018-11-07T21:11:01.790Z,8.20
2018-11-07T21:15:45.528Z,8.20
2018-11-07T21:20:29.329Z,8.00
2018-11-07T21:25:13.542Z,7.90
2018-11-07T21:29:57.471Z,8.00
2018-11-07T21:34:41.367Z,8.00
2018-11-07T21:39:25.152Z,8.00
2018-11-07T21:44:08.913Z,8.00
2018-11-07T21:48:52.686Z,8.00
2018-11-07T21:53:36.372Z,8.00
2018-11-07T21:58:20.059Z,7.90
2018-11-07T22:03:03.677Z,7.90
2018-11-07T22:07:47.421Z,7.90
2018-11-07T22:12:31.150Z,7.90
2018-11-07T22:17:15.167Z,7.90
2018-11-07T22:21:58.859Z,8.00
2018-11-07T22:26:42.676Z,8.10
2018-11-07T22:31:26.694Z,8.20
2018-11-07T22:36:10.370Z,8.20
2018-11-07T22:40:54.064Z,8.30
2018-11-07T22:45:37.741Z,8.30
2018-11-07T22:50:21.445Z,8.40
2018-11-07T22:55:05.401Z,8.50
2018-11-07T22:59:49.328Z,8.30
2018-11-07T23:04:33.017Z,8.20
2018-11-07T23:09:16.670Z,8.20
2018-11-07T23:14:00.388Z,8.10
2018-11-07T23:18:44.098Z,8.00
2018-11-07T23:23:27.887Z,7.90
2018-11-07T23:28:11.802Z,7.80
2018-11-07T23:32:56.054Z,7.80
2018-11-07T23:37:39.917Z,7.80
2018-11-07T23:42:23.724Z,7.80
2018-11-07T23:47:07.437Z,7.80
2018-11-07T23:51:51.228Z,7.90
2018-11-07T23:56:35.008Z,7.90
